world map with PYK marked

PYK - Airport

This information may not be accurate or current and is not valid for navigation or flight planning. No warranty of fitness for any purpose is made or implied.

flag of Iran

Donate via PayPal

Additional information is available on the NEW Great Circle Mapper

Location
City:  Karaj, Tehran, Iran
Name:Payam
ICAO / IATA:OIIP / PYK

Details
Type:Airport (Aerodrome, Airfield)
Latitude:35°46'34"N (35.776094)
Longitude:50°49'36"E (50.826686)
Datum:WGS 1984
Elevation:4170 ft (1271 m)
Runways:1
Longest:12005 × 197 ft (3659 × 60 m)

Time
Timezone:UTC+3:30 (DST+6:30)
Local Time:

Weather
METAR:OIIP  041400Z 26020KT 9999 FEW035 05/M08 Q1024
TAF:OIIP  (expired)

Related Locations
Nearby:
Farthest:GMR: 11493 mi / 18496 km
Mangareva [Totegegie], Gambier Islands, PF

Find:

   beyond  
but within

Other Information
Maps:
Sources:

  


 


Great Circle Mapper   Great Circle Mapper
Great Circle Mapper FAQ   Great Circle Mapper FAQ
  Karl's Home Page
KLSē   KLSē Home
   GC on Facebook
Airlines of the World   Airlines of the World
Donate via PayPal


Copyright © 2004-2019, Karl L. Swartz. All rights reserved.
All trademarks mentioned herein belong to their respective owners.

Please see credits for attribution and copyright information.

Karl Swartz <karl@kls2.com>
  Powered by FreeBSD
Valid HTML 4.01!
Labeled with ICRA
hCard Microformat
Geo Microformat